Time;durP1;ratioP1;P1;durP2;ratioP2;P2;SDS_P1;SDS_P2;PMS_P1;PMS_P2;Temp;Humidity;BMP_temperature;BMP_pressure;BME280_temperature;BME280_humidity;BME280_pressure;Samples;Min_cycle;Max_cycle;Signal;HPM_P1;HPM_P2
2022/07/12 00:02:23;;;;;;;;;;;11.00;99.90;;;;;;5072037;28;19908;-77
2022/07/12 00:04:49;;;;;;;;;;;11.10;99.90;;;;;;5072055;28;20388;-76
2022/07/12 00:07:14;;;;;;;;;;;11.10;99.90;;;;;;5070781;28;19924;-76
2022/07/12 00:09:40;;;;;;;;;;;11.10;99.90;;;;;;5072262;28;19915;-76
2022/07/12 00:12:06;;;;;;;;;;;11.00;99.90;;;;;;5071770;28;19912;-76
2022/07/12 00:14:31;;;;;;;;;;;11.10;99.90;;;;;;5071171;28;19953;-76
2022/07/12 00:16:57;;;;;;;;;;;11.10;99.90;;;;;;5072169;28;20365;-76
2022/07/12 00:19:22;;;;;;;;;;;11.30;99.90;;;;;;5072161;28;19998;-76
2022/07/12 00:21:48;;;;;;;;;;;11.20;99.90;;;;;;5071642;28;19909;-76
2022/07/12 00:24:13;;;;;;;;;;;11.30;99.90;;;;;;5070408;28;19920;-76
2022/07/12 00:26:39;;;;;;;;;;;11.20;99.90;;;;;;5072052;28;19913;-76
2022/07/12 00:29:05;;;;;;;;;;;11.10;99.90;;;;;;5072003;28;19952;-76
2022/07/12 00:31:30;;;;;;;;;;;11.10;99.90;;;;;;5071105;28;19912;-76
2022/07/12 00:33:56;;;;;;;;;;;11.00;99.90;;;;;;5071452;28;19909;-76
2022/07/12 00:36:21;;;;;;;;;;;11.00;99.90;;;;;;5071841;28;19915;-76
2022/07/12 00:38:47;;;;;;;;;;;11.00;99.90;;;;;;5070069;28;19908;-76
2022/07/12 00:41:12;;;;;;;;;;;11.00;99.90;;;;;;5071346;28;19956;-76
2022/07/12 00:43:38;;;;;;;;;;;10.90;99.90;;;;;;5070817;28;19954;-76
2022/07/12 00:46:03;;;;;;;;;;;10.90;99.90;;;;;;5071378;28;19995;-76
2022/07/12 00:48:31;;;;;;;;;;;10.90;99.90;;;;;;5071644;28;20886;-76
2022/07/12 00:50:56;;;;;;;;;;;10.80;99.90;;;;;;5071722;28;20007;-76
2022/07/12 00:53:24;;;;;;;;;;;10.80;99.90;;;;;;5070815;28;19999;-76
2022/07/12 00:55:55;;;;;;;;;;;10.70;99.90;;;;;;5070446;28;19912;-76
2022/07/12 00:58:22;;;;;;;;;;;10.70;99.90;;;;;;5071302;28;19916;-76
2022/07/12 01:00:48;;;;;;;;;;;10.70;99.90;;;;;;5071236;28;19920;-76
2022/07/12 01:03:14;;;;;;;;;;;10.60;99.90;;;;;;5069092;28;20135;-76
2022/07/12 01:05:40;;;;;;;;;;;10.60;99.90;;;;;;5071501;28;19916;-76
2022/07/12 01:08:06;;;;;;;;;;;10.60;99.90;;;;;;5069547;28;19908;-76
2022/07/12 01:10:32;;;;;;;;;;;10.50;99.90;;;;;;5071169;28;20259;-76
2022/07/12 01:12:58;;;;;;;;;;;10.50;99.90;;;;;;5067833;28;19954;-76
2022/07/12 01:15:25;;;;;;;;;;;10.50;99.90;;;;;;5070229;28;19962;-76
2022/07/12 01:17:51;;;;;;;;;;;10.50;99.90;;;;;;5071119;28;19951;-76
2022/07/12 01:20:16;;;;;;;;;;;10.60;99.90;;;;;;5071302;28;19955;-76
2022/07/12 01:22:49;;;;;;;;;;;10.60;99.90;;;;;;5070631;28;19963;-76
2022/07/12 01:25:14;;;;;;;;;;;10.60;99.90;;;;;;5070327;28;19912;-76
2022/07/12 01:27:40;;;;;;;;;;;10.60;99.90;;;;;;5066798;28;20353;-76
2022/07/12 01:30:05;;;;;;;;;;;10.60;99.90;;;;;;5070415;28;19912;-76
2022/07/12 01:32:31;;;;;;;;;;;10.60;99.90;;;;;;5071797;28;19939;-76
2022/07/12 01:34:58;;;;;;;;;;;10.60;99.90;;;;;;5069367;28;19995;-76
2022/07/12 01:37:25;;;;;;;;;;;10.50;99.90;;;;;;5071378;28;19915;-76
2022/07/12 01:39:52;;;;;;;;;;;10.50;99.90;;;;;;5071117;28;19909;-76
2022/07/12 01:42:18;;;;;;;;;;;10.50;99.90;;;;;;5070395;28;20342;-76
2022/07/12 01:44:43;;;;;;;;;;;10.50;99.90;;;;;;5070706;28;19908;-76
2022/07/12 01:47:10;;;;;;;;;;;10.50;99.90;;;;;;5070614;28;19913;-76
2022/07/12 01:49:35;;;;;;;;;;;10.60;99.90;;;;;;5070762;28;19912;-76
2022/07/12 01:52:01;;;;;;;;;;;10.50;99.90;;;;;;5063886;28;19909;-76
2022/07/12 01:54:26;;;;;;;;;;;10.50;99.90;;;;;;5069732;28;19909;-76
2022/07/12 01:56:52;;;;;;;;;;;10.40;99.90;;;;;;5070705;28;20281;-76
2022/07/12 01:59:18;;;;;;;;;;;10.30;99.90;;;;;;5070150;28;19909;-76
2022/07/12 02:01:43;;;;;;;;;;;10.40;99.90;;;;;;5067951;28;19954;-76
2022/07/12 02:04:09;;;;;;;;;;;10.50;99.90;;;;;;5068641;28;19913;-76
2022/07/12 02:06:35;;;;;;;;;;;10.50;99.90;;;;;;5070702;28;19908;-76
2022/07/12 02:09:00;;;;;;;;;;;10.50;99.90;;;;;;5070740;28;20373;-76
2022/07/12 02:11:26;;;;;;;;;;;10.50;99.90;;;;;;5070194;28;19916;-76
2022/07/12 02:13:51;;;;;;;;;;;10.50;99.90;;;;;;5070055;28;19979;-76
2022/07/12 02:16:17;;;;;;;;;;;10.50;99.90;;;;;;5069047;28;20255;-76
2022/07/12 02:18:42;;;;;;;;;;;10.60;99.90;;;;;;5070701;28;20278;-76
2022/07/12 02:21:08;;;;;;;;;;;10.70;99.90;;;;;;5070652;28;19908;-76
2022/07/12 02:23:34;;;;;;;;;;;10.60;99.90;;;;;;5069413;28;19924;-76
2022/07/12 02:25:59;;;;;;;;;;;10.60;99.90;;;;;;5070506;28;19912;-76
2022/07/12 02:28:25;;;;;;;;;;;10.60;99.90;;;;;;5070518;28;20371;-76
2022/07/12 02:30:50;;;;;;;;;;;10.60;99.90;;;;;;5069906;28;20320;-76
2022/07/12 02:33:16;;;;;;;;;;;10.50;99.90;;;;;;5069619;28;20014;-76
2022/07/12 02:35:42;;;;;;;;;;;10.60;99.90;;;;;;5070540;28;19942;-76
2022/07/12 02:38:07;;;;;;;;;;;10.50;99.90;;;;;;5070904;28;19908;-76
2022/07/12 02:43:17;;;;;;;;;;;10.60;99.90;;;;;;5073635;28;19916;-76
2022/07/12 02:45:42;;;;;;;;;;;10.50;99.90;;;;;;5073966;28;19908;-76
2022/07/12 02:48:10;;;;;;;;;;;10.50;99.90;;;;;;5074574;28;19930;-76
2022/07/12 02:50:36;;;;;;;;;;;10.40;99.90;;;;;;5072037;28;19916;-76
2022/07/12 02:53:01;;;;;;;;;;;10.40;99.90;;;;;;5073310;28;19957;-76
2022/07/12 02:55:27;;;;;;;;;;;10.30;99.90;;;;;;5072818;28;20330;-76
2022/07/12 02:57:52;;;;;;;;;;;10.40;99.90;;;;;;5068305;28;19912;-76
2022/07/12 03:00:17;;;;;;;;;;;10.40;99.90;;;;;;5073044;28;19915;-76
2022/07/12 03:02:43;;;;;;;;;;;10.40;99.90;;;;;;5073245;28;20358;-76
2022/07/12 03:05:09;;;;;;;;;;;10.40;99.90;;;;;;5073387;28;19938;-76
2022/07/12 03:07:34;;;;;;;;;;;10.50;99.90;;;;;;5073524;28;19917;-76
2022/07/12 03:09:59;;;;;;;;;;;10.60;99.90;;;;;;5073509;28;20358;-76
2022/07/12 03:12:25;;;;;;;;;;;10.60;99.90;;;;;;5073141;28;19915;-76
2022/07/12 03:14:50;;;;;;;;;;;10.50;99.90;;;;;;5072886;28;19913;-76
2022/07/12 03:17:16;;;;;;;;;;;10.50;99.90;;;;;;5073196;28;19908;-77
2022/07/12 03:19:41;;;;;;;;;;;10.40;99.90;;;;;;5072267;28;19920;-76
2022/07/12 03:22:07;;;;;;;;;;;10.50;99.90;;;;;;5072845;28;20362;-76
2022/07/12 03:24:33;;;;;;;;;;;10.70;99.90;;;;;;5072775;28;19917;-76
2022/07/12 03:26:58;;;;;;;;;;;10.80;99.90;;;;;;5073091;28;20314;-76
2022/07/12 03:29:24;;;;;;;;;;;10.90;99.90;;;;;;5072799;28;19987;-77
2022/07/12 03:31:49;;;;;;;;;;;11.00;99.90;;;;;;5072747;28;19957;-76
2022/07/12 03:34:15;;;;;;;;;;;11.10;99.90;;;;;;5071381;28;20362;-76
2022/07/12 03:36:40;;;;;;;;;;;11.10;99.90;;;;;;5072878;28;19908;-76
2022/07/12 03:39:06;;;;;;;;;;;11.10;99.90;;;;;;5073065;28;19940;-76
2022/07/12 03:41:31;;;;;;;;;;;11.20;99.90;;;;;;5072545;28;20366;-76
2022/07/12 03:43:57;;;;;;;;;;;11.10;99.90;;;;;;5072355;28;19908;-76
2022/07/12 03:46:22;;;;;;;;;;;11.20;99.90;;;;;;5068085;28;20254;-77
2022/07/12 03:48:48;;;;;;;;;;;11.30;99.90;;;;;;5072203;28;19908;-76
2022/07/12 03:51:13;;;;;;;;;;;11.40;99.90;;;;;;5072280;28;20005;-76
2022/07/12 03:53:39;;;;;;;;;;;11.40;99.90;;;;;;5072034;28;19947;-76
2022/07/12 03:56:04;;;;;;;;;;;11.40;99.90;;;;;;5072790;28;19914;-76
2022/07/12 03:58:30;;;;;;;;;;;11.40;99.90;;;;;;5072508;28;19909;-76
2022/07/12 04:00:55;;;;;;;;;;;11.40;99.90;;;;;;5072364;28;20274;-77
2022/07/12 04:03:21;;;;;;;;;;;11.30;99.90;;;;;;5071613;28;19962;-76
2022/07/12 04:05:46;;;;;;;;;;;11.30;99.90;;;;;;5072984;28;19919;-76
2022/07/12 04:08:12;;;;;;;;;;;11.40;99.90;;;;;;5072537;28;20816;-76
2022/07/12 04:10:37;;;;;;;;;;;11.40;99.90;;;;;;5072374;28;19919;-77
2022/07/12 04:13:03;;;;;;;;;;;11.40;99.90;;;;;;5071805;28;19966;-76
2022/07/12 04:15:29;;;;;;;;;;;11.40;99.90;;;;;;5067981;28;20321;-76
2022/07/12 04:17:54;;;;;;;;;;;11.50;99.90;;;;;;5072067;28;19930;-76
2022/07/12 04:20:20;;;;;;;;;;;11.60;99.90;;;;;;5072057;28;19916;-76
2022/07/12 04:22:45;;;;;;;;;;;11.60;99.90;;;;;;5071189;28;19909;-77
2022/07/12 04:25:11;;;;;;;;;;;11.60;99.90;;;;;;5071681;28;20378;-76
2022/07/12 04:27:37;;;;;;;;;;;11.60;99.90;;;;;;5072036;28;19978;-77
2022/07/12 04:30:03;;;;;;;;;;;11.60;99.90;;;;;;5072681;28;19971;-75
2022/07/12 04:32:28;;;;;;;;;;;11.60;99.90;;;;;;5070044;28;19916;-75
2022/07/12 04:34:54;;;;;;;;;;;11.70;99.90;;;;;;5071625;28;19999;-76
2022/07/12 04:37:19;;;;;;;;;;;11.70;99.90;;;;;;5070260;28;19912;-78
2022/07/12 04:39:45;;;;;;;;;;;11.80;99.90;;;;;;5073518;28;19908;-76
2022/07/12 04:42:11;;;;;;;;;;;11.80;99.90;;;;;;5071239;28;19938;-76
2022/07/12 04:44:36;;;;;;;;;;;11.80;99.90;;;;;;5071549;28;19915;-75
2022/07/12 04:47:02;;;;;;;;;;;11.90;99.90;;;;;;5069325;28;19954;-79
2022/07/12 04:49:27;;;;;;;;;;;12.00;99.90;;;;;;5070757;28;19914;-82
2022/07/12 04:51:53;;;;;;;;;;;12.10;99.90;;;;;;5072230;28;19916;-77
2022/07/12 04:54:19;;;;;;;;;;;12.10;99.90;;;;;;5070187;28;19916;-77
2022/07/12 04:56:44;;;;;;;;;;;12.20;99.90;;;;;;5071660;28;19912;-76
2022/07/12 04:59:10;;;;;;;;;;;12.30;99.90;;;;;;5071661;28;20377;-77
2022/07/12 05:01:35;;;;;;;;;;;12.40;99.90;;;;;;5070633;28;19984;-78
2022/07/12 05:04:01;;;;;;;;;;;12.40;99.90;;;;;;5070026;28;20345;-78
2022/07/12 05:06:26;;;;;;;;;;;12.50;99.90;;;;;;5070587;28;19912;-77
2022/07/12 05:08:52;;;;;;;;;;;12.60;99.90;;;;;;5070572;28;19913;-77
2022/07/12 05:11:18;;;;;;;;;;;12.80;99.90;;;;;;5071205;28;20377;-77
2022/07/12 05:13:43;;;;;;;;;;;12.90;99.90;;;;;;5070996;28;20278;-77
2022/07/12 05:16:09;;;;;;;;;;;12.90;99.90;;;;;;5071465;28;19962;-77
2022/07/12 05:18:35;;;;;;;;;;;12.90;99.90;;;;;;5076669;28;19908;-77
2022/07/12 05:21:00;;;;;;;;;;;13.10;99.90;;;;;;5071018;28;19963;-77
2022/07/12 05:23:26;;;;;;;;;;;13.20;99.90;;;;;;5070900;28;19936;-78
2022/07/12 05:25:52;;;;;;;;;;;13.20;99.90;;;;;;5073545;28;19908;-76
2022/07/12 05:28:18;;;;;;;;;;;13.50;99.90;;;;;;5061398;28;20366;-76
2022/07/12 05:30:45;;;;;;;;;;;13.60;99.90;;;;;;5071489;28;19912;-76
2022/07/12 05:33:12;;;;;;;;;;;13.70;99.90;;;;;;5074344;28;19915;-76
2022/07/12 05:35:37;;;;;;;;;;;13.90;99.90;;;;;;5075062;28;19915;-76
2022/07/12 05:38:03;;;;;;;;;;;14.00;99.90;;;;;;5074828;28;19994;-77
2022/07/12 05:40:28;;;;;;;;;;;14.10;99.90;;;;;;5077105;28;20329;-76
2022/07/12 05:42:54;;;;;;;;;;;14.40;99.90;;;;;;5076116;28;19999;-76
2022/07/12 05:45:21;;;;;;;;;;;14.40;99.90;;;;;;5079276;28;19923;-76
2022/07/12 05:47:47;;;;;;;;;;;14.40;99.90;;;;;;5077321;28;19931;-73
2022/07/12 05:50:13;;;;;;;;;;;14.70;99.90;;;;;;5067208;28;19916;-75
2022/07/12 05:55:22;;;;;;;;;;;16.20;99.90;;;;;;5080055;28;19923;-77
2022/07/12 05:57:49;;;;;;;;;;;16.00;99.90;;;;;;5066767;28;19913;-77
2022/07/12 06:00:15;;;;;;;;;;;16.70;99.90;;;;;;5069298;28;19919;-76
2022/07/12 06:02:41;;;;;;;;;;;16.40;99.90;;;;;;5069163;28;20069;-76
2022/07/12 06:05:06;;;;;;;;;;;16.50;99.90;;;;;;5071095;28;19926;-76
2022/07/12 06:07:32;;;;;;;;;;;18.00;99.90;;;;;;5077158;28;20273;-76
2022/07/12 06:09:58;;;;;;;;;;;18.20;99.90;;;;;;5079190;28;19908;-74
2022/07/12 06:12:23;;;;;;;;;;;17.90;99.90;;;;;;5081793;28;19958;-77
2022/07/12 06:14:49;;;;;;;;;;;17.60;99.90;;;;;;5086148;28;19912;-77
2022/07/12 06:17:21;;;;;;;;;;;17.00;99.90;;;;;;5081576;28;19915;-74
2022/07/12 06:19:46;;;;;;;;;;;16.90;99.90;;;;;;5072143;28;19999;-76
2022/07/12 06:22:12;;;;;;;;;;;16.50;99.90;;;;;;5074365;28;19948;-75
2022/07/12 06:24:37;;;;;;;;;;;16.30;99.90;;;;;;5080598;28;19916;-76
2022/07/12 06:27:03;;;;;;;;;;;16.30;99.90;;;;;;5080560;28;19916;-76
2022/07/12 06:29:29;;;;;;;;;;;17.50;99.90;;;;;;5080714;28;19912;-76
2022/07/12 06:31:54;;;;;;;;;;;19.00;99.90;;;;;;5081924;28;19916;-75
2022/07/12 06:34:20;;;;;;;;;;;19.30;99.90;;;;;;5080293;28;19924;-76
2022/07/12 06:36:45;;;;;;;;;;;19.60;99.90;;;;;;5078524;28;19909;-76
2022/07/12 06:39:11;;;;;;;;;;;20.00;99.90;;;;;;5076041;28;20277;-76
2022/07/12 06:41:36;;;;;;;;;;;19.40;99.90;;;;;;5075185;28;19916;-74
2022/07/12 06:44:02;;;;;;;;;;;19.70;99.90;;;;;;5075806;28;19912;-76
2022/07/12 06:46:27;;;;;;;;;;;19.40;99.90;;;;;;5078103;28;20354;-76
2022/07/12 06:48:53;;;;;;;;;;;18.60;99.90;;;;;;5084550;28;19916;-77
2022/07/12 06:51:19;;;;;;;;;;;19.30;99.90;;;;;;5071511;28;19912;-76
2022/07/12 06:53:45;;;;;;;;;;;20.30;99.90;;;;;;5074067;28;19957;-76
2022/07/12 06:56:10;;;;;;;;;;;20.30;99.90;;;;;;5076314;28;20522;-76
2022/07/12 06:58:36;;;;;;;;;;;19.80;99.90;;;;;;5076976;28;19955;-76
2022/07/12 07:01:01;;;;;;;;;;;20.30;99.90;;;;;;5074418;28;20278;-76
2022/07/12 07:03:27;;;;;;;;;;;20.90;99.90;;;;;;5075008;28;20016;-75
2022/07/12 07:05:53;;;;;;;;;;;21.60;99.90;;;;;;5074512;28;19912;-76
2022/07/12 07:08:18;;;;;;;;;;;21.60;99.90;;;;;;5075755;28;20354;-76
2022/07/12 07:10:44;;;;;;;;;;;21.80;99.90;;;;;;5073838;28;19917;-76
2022/07/12 07:13:10;;;;;;;;;;;22.10;99.90;;;;;;5074450;28;19959;-77
2022/07/12 07:15:38;;;;;;;;;;;22.70;99.90;;;;;;5078838;28;19908;-76
2022/07/12 07:18:04;;;;;;;;;;;23.20;98.20;;;;;;5072364;28;19920;-76
2022/07/12 07:20:29;;;;;;;;;;;23.10;98.00;;;;;;5082283;28;19913;-74
2022/07/12 07:22:55;;;;;;;;;;;23.10;97.30;;;;;;5074314;28;19908;-76
2022/07/12 07:25:20;;;;;;;;;;;23.00;97.20;;;;;;5072351;28;20011;-77
2022/07/12 07:27:46;;;;;;;;;;;22.80;98.60;;;;;;5075572;28;20269;-76
2022/07/12 07:32:56;;;;;;;;;;;23.70;96.90;;;;;;5074352;28;20281;-79
2022/07/12 07:35:21;;;;;;;;;;;23.70;96.50;;;;;;5074432;28;19908;-77
2022/07/12 07:37:47;;;;;;;;;;;24.00;93.90;;;;;;5076129;28;19909;-77
2022/07/12 07:40:12;;;;;;;;;;;23.10;95.80;;;;;;5069613;28;19908;-75
2022/07/12 07:42:38;;;;;;;;;;;23.90;95.80;;;;;;5078453;28;19912;-74
2022/07/12 07:45:06;;;;;;;;;;;24.10;93.70;;;;;;5075045;28;20297;-76
2022/07/12 07:47:31;;;;;;;;;;;24.30;94.00;;;;;;5067300;28;19908;-76
2022/07/12 07:49:57;;;;;;;;;;;24.50;93.70;;;;;;5076381;28;19909;-77
2022/07/12 07:52:22;;;;;;;;;;;24.70;91.80;;;;;;5074709;28;20312;-76
2022/07/12 07:54:48;;;;;;;;;;;24.30;91.80;;;;;;5072324;28;19909;-75
2022/07/12 07:57:13;;;;;;;;;;;24.20;91.90;;;;;;5061739;28;20027;-77
2022/07/12 07:59:39;;;;;;;;;;;24.10;91.10;;;;;;5077660;28;19920;-76
2022/07/12 08:02:05;;;;;;;;;;;24.90;91.00;;;;;;5073062;28;20040;-77
2022/07/12 08:04:30;;;;;;;;;;;25.70;86.90;;;;;;5075032;28;19917;-75
2022/07/12 08:06:58;;;;;;;;;;;25.20;88.50;;;;;;5074240;28;20386;-77
2022/07/12 08:09:23;;;;;;;;;;;25.10;90.50;;;;;;5076153;28;19915;-77
2022/07/12 08:11:49;;;;;;;;;;;25.40;88.20;;;;;;5072944;28;20324;-76
2022/07/12 08:14:15;;;;;;;;;;;25.90;87.10;;;;;;5075038;28;19908;-77
2022/07/12 08:16:40;;;;;;;;;;;26.60;84.30;;;;;;5070343;28;19931;-77
2022/07/12 08:19:06;;;;;;;;;;;27.30;81.40;;;;;;5082792;28;20002;-77
2022/07/12 08:21:32;;;;;;;;;;;26.70;79.30;;;;;;5074581;28;20318;-77
2022/07/12 08:23:57;;;;;;;;;;;26.40;80.00;;;;;;5078410;28;19966;-76
2022/07/12 08:26:23;;;;;;;;;;;26.10;82.20;;;;;;5073646;28;19921;-75
2022/07/12 08:28:48;;;;;;;;;;;27.00;79.30;;;;;;5066831;28;20298;-77
2022/07/12 08:31:14;;;;;;;;;;;27.30;81.20;;;;;;5071260;28;19962;-77
2022/07/12 08:33:40;;;;;;;;;;;27.80;80.10;;;;;;5079957;28;19920;-77
2022/07/12 08:36:08;;;;;;;;;;;27.80;78.80;;;;;;5072808;28;19908;-77
2022/07/12 08:38:36;;;;;;;;;;;27.40;78.40;;;;;;5072712;28;19908;-75
2022/07/12 08:41:01;;;;;;;;;;;26.80;76.20;;;;;;5073770;28;20011;-76
2022/07/12 08:43:27;;;;;;;;;;;26.80;80.40;;;;;;5070937;28;19947;-77
2022/07/12 08:45:52;;;;;;;;;;;27.80;76.50;;;;;;5073765;28;19909;-77
2022/07/12 08:48:18;;;;;;;;;;;27.70;79.30;;;;;;5072734;28;19915;-77
2022/07/12 08:50:59;;;;;;;;;;;27.00;76.90;;;;;;5074479;28;19912;-75
2022/07/12 08:53:24;;;;;;;;;;;26.40;78.90;;;;;;5073200;28;20372;-77
2022/07/12 08:55:50;;;;;;;;;;;26.40;77.00;;;;;;5072205;28;19916;-76
2022/07/12 08:58:16;;;;;;;;;;;28.00;81.60;;;;;;5072465;28;20005;-77
2022/07/12 09:00:41;;;;;;;;;;;28.50;74.60;;;;;;5064614;28;19915;-77
2022/07/12 09:03:07;;;;;;;;;;;28.30;74.80;;;;;;5070733;28;19908;-78
2022/07/12 09:05:33;;;;;;;;;;;27.70;77.60;;;;;;5072517;28;19913;-76
2022/07/12 09:08:18;;;;;;;;;;;26.40;73.80;;;;;;5072798;28;19908;-75
2022/07/12 09:10:50;;;;;;;;;;;24.50;78.60;;;;;;5069377;28;19916;-76
2022/07/12 09:13:16;;;;;;;;;;;24.20;84.40;;;;;;5072227;28;19909;-76
2022/07/12 09:15:42;;;;;;;;;;;26.90;79.10;;;;;;5070671;28;19915;-77
2022/07/12 09:18:15;;;;;;;;;;;26.80;74.70;;;;;;5075527;28;19960;-77
2022/07/12 09:20:41;;;;;;;;;;;28.40;72.00;;;;;;5072192;28;19920;-76
2022/07/12 09:23:08;;;;;;;;;;;26.70;78.10;;;;;;5072000;28;19935;-76
2022/07/12 09:25:34;;;;;;;;;;;26.60;78.00;;;;;;5071424;28;19909;-77
2022/07/12 09:28:03;;;;;;;;;;;26.30;80.90;;;;;;5077653;28;19912;-77
2022/07/12 09:30:29;;;;;;;;;;;26.80;76.40;;;;;;5077151;28;19950;-77
2022/07/12 09:36:17;;;;;;;;;;;23.70;81.40;;;;;;5068510;28;19916;-76
2022/07/12 09:38:49;;;;;;;;;;;23.40;86.40;;;;;;5070039;28;19909;-74
2022/07/12 09:41:20;;;;;;;;;;;25.40;80.50;;;;;;5073225;28;19909;-74
2022/07/12 09:43:46;;;;;;;;;;;26.90;76.20;;;;;;5076257;28;19916;-76
2022/07/12 09:46:13;;;;;;;;;;;27.40;72.10;;;;;;5082967;28;20358;-76
2022/07/12 09:48:39;;;;;;;;;;;28.20;74.90;;;;;;5087122;28;19908;-77
2022/07/12 09:51:07;;;;;;;;;;;27.80;73.60;;;;;;5088413;28;19912;-76
2022/07/12 09:53:37;;;;;;;;;;;27.50;78.00;;;;;;5090656;28;19992;-76
2022/07/12 09:56:04;;;;;;;;;;;29.10;78.80;;;;;;5090856;28;19912;-76
2022/07/12 09:58:30;;;;;;;;;;;26.60;73.60;;;;;;5080740;28;20003;-75
2022/07/12 10:00:59;;;;;;;;;;;25.50;81.20;;;;;;5069896;28;19909;-76
2022/07/12 10:03:26;;;;;;;;;;;24.70;77.60;;;;;;5080310;28;19912;-77
2022/07/12 10:05:55;;;;;;;;;;;24.60;83.40;;;;;;5078602;28;19909;-77
2022/07/12 10:08:21;;;;;;;;;;;28.00;76.90;;;;;;5077419;28;20341;-76
2022/07/12 10:10:47;;;;;;;;;;;28.20;68.20;;;;;;5070479;28;20289;-76
2022/07/12 10:13:13;;;;;;;;;;;28.70;76.70;;;;;;5082521;28;19928;-78
2022/07/12 10:15:40;;;;;;;;;;;29.40;69.80;;;;;;5077014;28;19908;-76
2022/07/12 10:18:05;;;;;;;;;;;29.10;70.10;;;;;;5079931;28;19912;-76
2022/07/12 10:20:31;;;;;;;;;;;29.70;67.70;;;;;;5078740;28;20007;-77
2022/07/12 10:23:15;;;;;;;;;;;27.50;71.00;;;;;;5076774;28;19920;-75
2022/07/12 10:25:41;;;;;;;;;;;26.30;73.70;;;;;;5074011;28;19912;-76
2022/07/12 10:28:06;;;;;;;;;;;26.90;71.80;;;;;;5077453;28;19916;-76
2022/07/12 10:30:42;;;;;;;;;;;27.80;74.00;;;;;;5078114;28;20276;-76
2022/07/12 10:33:14;;;;;;;;;;;28.20;76.30;;;;;;5071614;28;19909;-76
2022/07/12 10:35:57;;;;;;;;;;;28.90;70.60;;;;;;5082355;28;19917;-77
2022/07/12 10:38:25;;;;;;;;;;;29.30;73.20;;;;;;5077841;28;20289;-76
2022/07/12 10:40:51;;;;;;;;;;;27.90;71.20;;;;;;5075856;28;19908;-77
2022/07/12 10:43:18;;;;;;;;;;;29.20;69.50;;;;;;5075138;28;20357;-77
2022/07/12 10:45:45;;;;;;;;;;;29.60;71.60;;;;;;5076063;28;19974;-76
2022/07/12 10:48:13;;;;;;;;;;;28.90;71.50;;;;;;5075375;28;20027;-75
2022/07/12 10:50:43;;;;;;;;;;;28.70;69.80;;;;;;5075304;28;19939;-76
2022/07/12 10:53:23;;;;;;;;;;;28.80;69.20;;;;;;5074899;28;19908;-76
2022/07/12 10:56:04;;;;;;;;;;;28.80;69.60;;;;;;5056704;28;19909;-76
2022/07/12 10:58:34;;;;;;;;;;;28.20;71.80;;;;;;5074640;28;19913;-77
2022/07/12 11:01:02;;;;;;;;;;;28.90;66.30;;;;;;5073790;28;19908;-77
2022/07/12 11:03:31;;;;;;;;;;;29.40;65.00;;;;;;5073196;28;19908;-76
2022/07/12 11:06:03;;;;;;;;;;;27.60;69.70;;;;;;5080208;28;19978;-76
2022/07/12 11:08:29;;;;;;;;;;;27.30;68.30;;;;;;5073565;28;20369;-75
2022/07/12 11:10:55;;;;;;;;;;;27.70;67.70;;;;;;5068870;28;19970;-76
2022/07/12 11:13:22;;;;;;;;;;;27.20;71.50;;;;;;5074711;28;20353;-75
2022/07/12 11:16:00;;;;;;;;;;;27.50;70.40;;;;;;5071313;28;19909;-76
2022/07/12 11:18:33;;;;;;;;;;;26.80;74.10;;;;;;5075218;28;20380;-76
2022/07/12 11:20:59;;;;;;;;;;;27.80;71.50;;;;;;5074607;28;19943;-77
2022/07/12 11:23:26;;;;;;;;;;;27.30;70.50;;;;;;5070777;28;19920;-77
2022/07/12 11:25:59;;;;;;;;;;;27.70;69.30;;;;;;5072273;28;20337;-76
2022/07/12 11:28:26;;;;;;;;;;;27.20;70.20;;;;;;5071897;28;20025;-75
2022/07/12 11:30:52;;;;;;;;;;;28.60;66.40;;;;;;5073026;28;20373;-77
2022/07/12 11:33:18;;;;;;;;;;;29.20;66.50;;;;;;5070883;28;19908;-77
2022/07/12 11:35:47;;;;;;;;;;;29.70;63.90;;;;;;5075640;28;19915;-77
2022/07/12 11:38:13;;;;;;;;;;;29.40;64.60;;;;;;5071878;28;20373;-76
2022/07/12 11:40:39;;;;;;;;;;;28.30;65.10;;;;;;5072573;28;19995;-77
2022/07/12 11:43:05;;;;;;;;;;;28.60;68.30;;;;;;5070331;28;19950;-76
2022/07/12 11:45:32;;;;;;;;;;;29.70;65.60;;;;;;5073282;28;19912;-77
2022/07/12 11:48:02;;;;;;;;;;;29.10;62.70;;;;;;5072361;28;19916;-77
2022/07/12 11:50:31;;;;;;;;;;;28.20;66.80;;;;;;5071575;28;19996;-77
2022/07/12 11:52:57;;;;;;;;;;;28.40;67.90;;;;;;5071286;28;19908;-77
2022/07/12 11:55:23;;;;;;;;;;;29.10;67.70;;;;;;5072091;28;20384;-77
2022/07/12 11:57:48;;;;;;;;;;;29.10;66.30;;;;;;5071528;28;19908;-76
2022/07/12 12:00:18;;;;;;;;;;;29.40;67.10;;;;;;5072464;28;20339;-74
2022/07/12 12:02:44;;;;;;;;;;;29.10;64.90;;;;;;5069576;28;19908;-75
2022/07/12 12:05:11;;;;;;;;;;;28.00;66.80;;;;;;5078210;28;19931;-76
2022/07/12 12:07:36;;;;;;;;;;;28.30;66.10;;;;;;5073184;28;19909;-74
2022/07/12 12:10:12;;;;;;;;;;;28.20;65.50;;;;;;5072197;28;20011;-77
2022/07/12 12:12:37;;;;;;;;;;;28.00;63.00;;;;;;5067636;28;19912;-76
2022/07/12 12:15:04;;;;;;;;;;;28.10;69.10;;;;;;5074692;28;20299;-75
2022/07/12 12:17:29;;;;;;;;;;;27.90;66.00;;;;;;5071237;28;19931;-76
2022/07/12 12:19:55;;;;;;;;;;;28.90;66.10;;;;;;5071255;28;20444;-76
2022/07/12 12:22:33;;;;;;;;;;;28.30;63.90;;;;;;5070372;28;19959;-77
2022/07/12 12:25:00;;;;;;;;;;;28.50;68.70;;;;;;5064721;28;20344;-77
2022/07/12 12:27:25;;;;;;;;;;;28.30;63.40;;;;;;5051185;28;19908;-76
2022/07/12 12:29:53;;;;;;;;;;;29.40;65.80;;;;;;5071271;28;19909;-74
2022/07/12 12:32:19;;;;;;;;;;;29.20;62.40;;;;;;5069671;28;19917;-76
2022/07/12 12:35:03;;;;;;;;;;;31.00;59.90;;;;;;5071958;28;19912;-77
2022/07/12 12:37:29;;;;;;;;;;;32.10;59.80;;;;;;5070551;28;20259;-75
2022/07/12 12:39:54;;;;;;;;;;;33.30;55.70;;;;;;5071807;28;19931;-76
2022/07/12 12:42:24;;;;;;;;;;;33.10;55.00;;;;;;5072098;28;19913;-76
2022/07/12 12:44:50;;;;;;;;;;;33.30;53.90;;;;;;5082643;28;19903;-78
2022/07/12 12:47:30;;;;;;;;;;;32.20;54.70;;;;;;5072229;28;19950;-76
2022/07/12 12:50:02;;;;;;;;;;;33.90;54.80;;;;;;5071279;28;19912;-77
2022/07/12 12:52:29;;;;;;;;;;;34.50;49.40;;;;;;5071090;28;19928;-77
2022/07/12 12:54:55;;;;;;;;;;;34.80;54.20;;;;;;5071206;28;19915;-77
2022/07/12 12:57:21;;;;;;;;;;;34.90;53.60;;;;;;5070459;28;19916;-78
2022/07/12 12:59:47;;;;;;;;;;;36.30;49.70;;;;;;5070184;28;19912;-77
2022/07/12 13:02:13;;;;;;;;;;;37.00;45.90;;;;;;5070003;28;19912;-77
2022/07/12 13:04:38;;;;;;;;;;;36.40;45.10;;;;;;5078552;28;19912;-78
2022/07/12 13:07:06;;;;;;;;;;;35.70;48.20;;;;;;5073571;28;19931;-76
2022/07/12 13:09:32;;;;;;;;;;;34.70;49.00;;;;;;5070593;28;19909;-76
2022/07/12 13:11:58;;;;;;;;;;;33.90;47.60;;;;;;5068260;28;19921;-78
2022/07/12 13:14:24;;;;;;;;;;;34.80;47.20;;;;;;5072846;28;19914;-77
2022/07/12 13:16:49;;;;;;;;;;;34.60;47.40;;;;;;5067467;28;19995;-76
2022/07/12 13:19:15;;;;;;;;;;;34.80;47.40;;;;;;5070036;28;19962;-77
2022/07/12 13:21:41;;;;;;;;;;;33.90;46.50;;;;;;5068670;28;19915;-76
2022/07/12 13:24:06;;;;;;;;;;;34.30;47.40;;;;;;5069335;28;19916;-76
2022/07/12 13:26:32;;;;;;;;;;;35.30;48.90;;;;;;5069811;28;20343;-77
2022/07/12 13:28:57;;;;;;;;;;;35.70;44.90;;;;;;5069968;28;20362;-76
2022/07/12 13:31:23;;;;;;;;;;;33.80;47.50;;;;;;5062429;28;19913;-76
2022/07/12 13:33:48;;;;;;;;;;;34.10;47.40;;;;;;5065901;28;19908;-75
2022/07/12 13:36:14;;;;;;;;;;;34.50;48.40;;;;;;5070990;28;19997;-76
2022/07/12 13:38:40;;;;;;;;;;;35.60;45.90;;;;;;5069519;28;19919;-76
2022/07/12 13:41:05;;;;;;;;;;;35.30;47.30;;;;;;5069542;28;19927;-77
2022/07/12 13:43:31;;;;;;;;;;;35.90;44.00;;;;;;5070136;28;19909;-77
2022/07/12 13:45:57;;;;;;;;;;;34.90;45.80;;;;;;5069600;28;19915;-77
2022/07/12 13:48:22;;;;;;;;;;;33.90;44.30;;;;;;5070695;28;19923;-77
2022/07/12 13:50:48;;;;;;;;;;;33.60;45.70;;;;;;5070577;28;20357;-76
2022/07/12 13:53:14;;;;;;;;;;;34.20;46.60;;;;;;5069929;28;19916;-75
2022/07/12 13:55:41;;;;;;;;;;;34.50;47.60;;;;;;5067858;28;20298;-75
2022/07/12 13:58:07;;;;;;;;;;;33.80;46.00;;;;;;5070546;28;19952;-76
2022/07/12 14:00:33;;;;;;;;;;;35.00;45.90;;;;;;5069264;28;20079;-75
2022/07/12 14:02:58;;;;;;;;;;;34.00;45.00;;;;;;5074882;28;19916;-77
2022/07/12 14:05:24;;;;;;;;;;;34.70;46.10;;;;;;5072102;28;19959;-77
2022/07/12 14:07:50;;;;;;;;;;;34.00;45.70;;;;;;5070279;28;19955;-77
2022/07/12 14:10:16;;;;;;;;;;;35.10;49.20;;;;;;5070631;28;19952;-77
2022/07/12 14:12:41;;;;;;;;;;;33.80;46.10;;;;;;5070302;28;19908;-74
2022/07/12 14:17:40;;;;;;;;;;;34.90;44.10;;;;;;5067361;28;20065;-77
2022/07/12 14:20:06;;;;;;;;;;;36.10;44.30;;;;;;5069988;28;20040;-77
2022/07/12 14:22:32;;;;;;;;;;;34.80;46.00;;;;;;5069846;28;19909;-77
2022/07/12 14:24:57;;;;;;;;;;;35.10;44.50;;;;;;5067918;28;20272;-78
2022/07/12 14:27:23;;;;;;;;;;;34.90;45.30;;;;;;5059596;28;19912;-78